Time;durP1;ratioP1;P1;durP2;ratioP2;P2;SDS_P1;SDS_P2;PMS_P1;PMS_P2;Temp;Humidity;BMP_temperature;BMP_pressure;BME280_temperature;BME280_humidity;BME280_pressure;Samples;Min_cycle;Max_cycle;Signal;HPM_P1;HPM_P2
2021/05/29 00:00:52;;;;;;;1.27;1.10;;;;;;;;;;5113723;28;20290;-71
2021/05/29 00:03:19;;;;;;;1.13;0.93;;;;;;;;;;5113867;28;20239;-72
2021/05/29 00:05:45;;;;;;;1.17;0.80;;;;;;;;;;5113320;28;20401;-71
2021/05/29 00:08:12;;;;;;;1.20;0.90;;;;;;;;;;5095295;28;20231;-71
2021/05/29 00:10:39;;;;;;;1.07;0.90;;;;;;;;;;5113406;28;20204;-72
2021/05/29 00:13:06;;;;;;;1.33;0.70;;;;;;;;;;5112234;28;20748;-71
2021/05/29 00:15:33;;;;;;;0.97;0.77;;;;;;;;;;5113335;28;20238;-72
2021/05/29 00:18:00;;;;;;;0.73;0.63;;;;;;;;;;5113454;28;20231;-71
2021/05/29 00:20:26;;;;;;;0.80;0.70;;;;;;;;;;5095261;28;20196;-71
2021/05/29 00:22:52;;;;;;;1.53;0.87;;;;;;;;;;5113519;28;20707;-71
2021/05/29 00:25:19;;;;;;;1.90;1.50;;;;;;;;;;5112798;28;20283;-71
2021/05/29 00:27:45;;;;;;;1.37;1.00;;;;;;;;;;5113475;28;20291;-72
2021/05/29 00:30:12;;;;;;;0.57;0.57;;;;;;;;;;5113273;28;20314;-72
2021/05/29 00:32:39;;;;;;;1.17;0.97;;;;;;;;;;5113263;28;20212;-72
2021/05/29 00:35:07;;;;;;;1.23;0.83;;;;;;;;;;5112901;28;20199;-72
2021/05/29 00:37:33;;;;;;;2.13;0.97;;;;;;;;;;5094989;28;20204;-72
2021/05/29 00:40:00;;;;;;;1.63;1.20;;;;;;;;;;5112807;28;20412;-72
2021/05/29 00:42:26;;;;;;;1.63;1.13;;;;;;;;;;5113170;28;20204;-71
2021/05/29 00:44:55;;;;;;;1.10;1.00;;;;;;;;;;5112604;28;20291;-71
2021/05/29 00:47:22;;;;;;;1.83;0.93;;;;;;;;;;5094746;28;20250;-70
2021/05/29 00:49:49;;;;;;;1.20;0.73;;;;;;;;;;5094351;28;20719;-71
2021/05/29 00:52:16;;;;;;;0.90;0.90;;;;;;;;;;5094794;28;20213;-70
2021/05/29 00:54:43;;;;;;;1.73;1.10;;;;;;;;;;5112795;28;20331;-70
2021/05/29 00:57:10;;;;;;;0.83;0.70;;;;;;;;;;5113210;28;20632;-71
2021/05/29 00:59:37;;;;;;;1.10;1.00;;;;;;;;;;5112683;28;20339;-71
2021/05/29 01:34:24;;;;;;;0.57;0.57;;;;;;;;;;5109503;27;20351;-71
2021/05/29 01:36:50;;;;;;;1.03;0.93;;;;;;;;;;5109675;28;20290;-71
2021/05/29 01:39:16;;;;;;;1.40;1.17;;;;;;;;;;5109558;28;20224;-72
2021/05/29 01:41:44;;;;;;;0.90;0.67;;;;;;;;;;5109367;28;20661;-71
2021/05/29 01:44:11;;;;;;;0.80;0.70;;;;;;;;;;5109395;28;20202;-71
2021/05/29 01:46:38;;;;;;;1.50;0.70;;;;;;;;;;5109119;28;20283;-72
2021/05/29 01:49:04;;;;;;;1.03;0.87;;;;;;;;;;5109303;28;20223;-72
2021/05/29 01:51:31;;;;;;;0.60;0.60;;;;;;;;;;5109447;28;20203;-71
2021/05/29 01:53:57;;;;;;;1.73;1.00;;;;;;;;;;5091245;28;20230;-71
2021/05/29 01:56:23;;;;;;;1.00;0.90;;;;;;;;;;5108942;28;20204;-71
2021/05/29 01:58:50;;;;;;;4.53;1.90;;;;;;;;;;5108970;28;20771;-71
2021/05/29 02:01:16;;;;;;;0.80;0.80;;;;;;;;;;5108964;28;20570;-71
2021/05/29 02:03:44;;;;;;;1.37;0.90;;;;;;;;;;5107904;28;20200;-72
2021/05/29 02:06:12;;;;;;;1.57;0.77;;;;;;;;;;5108780;28;20208;-71
2021/05/29 02:08:39;;;;;;;6.80;1.47;;;;;;;;;;5108777;28;20258;-71
2021/05/29 02:11:05;;;;;;;1.07;0.97;;;;;;;;;;5108833;28;20494;-72
2021/05/29 02:13:36;;;;;;;1.90;1.17;;;;;;;;;;5108893;28;20227;-72
2021/05/29 02:16:03;;;;;;;2.30;1.13;;;;;;;;;;5108989;28;20657;-72
2021/05/29 02:18:29;;;;;;;1.37;0.97;;;;;;;;;;5109131;28;20306;-72
2021/05/29 02:21:04;;;;;;;1.00;0.90;;;;;;;;;;5109049;28;20204;-72
2021/05/29 02:23:34;;;;;;;1.13;0.80;;;;;;;;;;5109329;28;20262;-72
2021/05/29 02:26:04;;;;;;;1.43;1.10;;;;;;;;;;5090624;28;20278;-72
2021/05/29 02:28:32;;;;;;;1.67;1.23;;;;;;;;;;5108812;28;20310;-72
2021/05/29 02:30:58;;;;;;;2.90;1.00;;;;;;;;;;5108716;28;20214;-72
2021/05/29 02:33:25;;;;;;;1.90;1.07;;;;;;;;;;5108519;28;20270;-71
2021/05/29 02:35:52;;;;;;;0.97;0.83;;;;;;;;;;5108208;28;20292;-71
2021/05/29 02:38:19;;;;;;;2.10;1.37;;;;;;;;;;5107193;28;20647;-71
2021/05/29 02:40:46;;;;;;;1.73;1.20;;;;;;;;;;5106886;28;20613;-71
2021/05/29 02:43:12;;;;;;;1.30;1.03;;;;;;;;;;5108515;28;20211;-71
2021/05/29 02:45:39;;;;;;;1.07;0.90;;;;;;;;;;5094811;28;20207;-71
2021/05/29 02:48:08;;;;;;;1.63;1.10;;;;;;;;;;5093364;28;20668;-72
2021/05/29 02:50:34;;;;;;;4.40;0.90;;;;;;;;;;5093556;28;20295;-72
2021/05/29 02:53:00;;;;;;;2.60;1.40;;;;;;;;;;5094633;28;20221;-72
2021/05/29 02:55:27;;;;;;;1.20;0.87;;;;;;;;;;5093251;28;20200;-72
2021/05/29 02:57:54;;;;;;;1.23;0.90;;;;;;;;;;5094494;28;20299;-72
2021/05/29 03:00:31;;;;;;;1.63;1.03;;;;;;;;;;5094445;28;20737;-71
2021/05/29 03:02:59;;;;;;;1.03;0.90;;;;;;;;;;5093390;28;20210;-70
2021/05/29 03:05:26;;;;;;;0.70;0.70;;;;;;;;;;5094180;28;20204;-71
2021/05/29 03:07:52;;;;;;;1.63;0.87;;;;;;;;;;5094091;28;20211;-72
2021/05/29 03:10:20;;;;;;;1.83;0.90;;;;;;;;;;5093311;28;20201;-71
2021/05/29 03:12:51;;;;;;;2.37;1.00;;;;;;;;;;5076846;28;20715;-71
2021/05/29 03:15:19;;;;;;;0.90;0.90;;;;;;;;;;5094003;28;20200;-71
2021/05/29 03:17:46;;;;;;;1.07;0.97;;;;;;;;;;5094011;28;20228;-71
2021/05/29 03:20:14;;;;;;;0.83;0.60;;;;;;;;;;5093167;28;20197;-72
2021/05/29 03:22:41;;;;;;;0.87;0.73;;;;;;;;;;5092775;28;20236;-72
2021/05/29 03:25:08;;;;;;;1.60;1.10;;;;;;;;;;5093704;28;20208;-71
2021/05/29 03:27:35;;;;;;;1.10;1.00;;;;;;;;;;5094044;28;20300;-72
2021/05/29 03:30:06;;;;;;;0.73;0.73;;;;;;;;;;5093818;28;20311;-72
2021/05/29 03:32:32;;;;;;;1.30;1.10;;;;;;;;;;5092495;28;20291;-72
2021/05/29 03:34:58;;;;;;;1.77;0.97;;;;;;;;;;5092140;28;20289;-72
2021/05/29 03:37:25;;;;;;;1.10;1.00;;;;;;;;;;5093940;28;20201;-72
2021/05/29 03:39:51;;;;;;;1.73;1.33;;;;;;;;;;5093927;28;20231;-73
2021/05/29 03:42:17;;;;;;;1.43;0.80;;;;;;;;;;5092580;28;20280;-72
2021/05/29 03:44:44;;;;;;;1.10;0.97;;;;;;;;;;5092019;28;20645;-71
2021/05/29 03:47:10;;;;;;;1.23;1.10;;;;;;;;;;5093563;28;20205;-71
2021/05/29 03:49:36;;;;;;;0.80;0.80;;;;;;;;;;5093054;28;20307;-72
2021/05/29 03:52:03;;;;;;;2.10;1.10;;;;;;;;;;5093586;28;20200;-72
2021/05/29 03:54:29;;;;;;;3.70;1.23;;;;;;;;;;5093196;28;20311;-72
2021/05/29 03:56:56;;;;;;;4.53;2.20;;;;;;;;;;5091084;28;20713;-71
2021/05/29 03:59:22;;;;;;;0.70;0.67;;;;;;;;;;5093089;28;20337;-71
2021/05/29 04:01:48;;;;;;;0.97;0.80;;;;;;;;;;5093257;28;20201;-71
2021/05/29 04:04:15;;;;;;;1.10;0.70;;;;;;;;;;5075054;28;20221;-71
2021/05/29 04:06:41;;;;;;;1.27;0.90;;;;;;;;;;5092055;28;20287;-71
2021/05/29 04:09:08;;;;;;;0.60;0.60;;;;;;;;;;5093026;28;20803;-72
2021/05/29 04:11:35;;;;;;;0.80;0.80;;;;;;;;;;5093330;28;20292;-72
2021/05/29 04:14:02;;;;;;;3.10;1.47;;;;;;;;;;5093008;28;20224;-72
2021/05/29 04:16:29;;;;;;;1.90;1.30;;;;;;;;;;5092670;28;20748;-73
2021/05/29 04:18:56;;;;;;;1.97;1.37;;;;;;;;;;5074863;28;20224;-72
2021/05/29 04:21:22;;;;;;;1.40;0.77;;;;;;;;;;5091872;28;20299;-72
2021/05/29 04:23:48;;;;;;;1.10;1.00;;;;;;;;;;5092918;28;20239;-72
2021/05/29 04:26:15;;;;;;;1.63;0.93;;;;;;;;;;5092569;28;20211;-72
2021/05/29 04:28:41;;;;;;;2.40;1.20;;;;;;;;;;5092665;28;20316;-72
2021/05/29 04:31:08;;;;;;;1.13;1.03;;;;;;;;;;5092536;28;20215;-72
2021/05/29 04:33:34;;;;;;;1.50;1.10;;;;;;;;;;5092576;28;20261;-73
2021/05/29 04:36:01;;;;;;;1.27;1.17;;;;;;;;;;5091255;28;20200;-72
2021/05/29 04:38:27;;;;;;;1.43;1.33;;;;;;;;;;5091402;28;20248;-72
2021/05/29 04:40:54;;;;;;;1.53;1.13;;;;;;;;;;5092645;28;20204;-72
2021/05/29 04:43:20;;;;;;;2.40;1.50;;;;;;;;;;5092532;28;20247;-72
2021/05/29 04:45:48;;;;;;;0.93;0.93;;;;;;;;;;5092130;28;20296;-72
2021/05/29 04:48:14;;;;;;;2.50;1.50;;;;;;;;;;5092420;28;20238;-72
2021/05/29 04:53:26;;;;;;;1.77;1.00;;;;;;;;;;5093773;28;20220;-72
2021/05/29 04:55:53;;;;;;;11.40;1.43;;;;;;;;;;5092873;28;20291;-73
2021/05/29 04:58:20;;;;;;;1.60;1.10;;;;;;;;;;5091398;28;20256;-72
2021/05/29 05:00:47;;;;;;;1.30;0.90;;;;;;;;;;5091730;28;20197;-72
2021/05/29 05:03:13;;;;;;;2.17;1.10;;;;;;;;;;5092388;28;20282;-72
2021/05/29 05:05:39;;;;;;;2.53;1.20;;;;;;;;;;5092001;28;20208;-71
2021/05/29 05:08:06;;;;;;;2.77;1.30;;;;;;;;;;5091748;28;20250;-72
2021/05/29 05:10:32;;;;;;;1.17;0.93;;;;;;;;;;5092051;28;20596;-72
2021/05/29 05:12:59;;;;;;;1.53;1.00;;;;;;;;;;5091853;28;20208;-72
2021/05/29 05:15:25;;;;;;;1.30;1.10;;;;;;;;;;5091998;28;20236;-73
2021/05/29 05:17:52;;;;;;;1.37;0.93;;;;;;;;;;5090867;28;20633;-72
2021/05/29 05:20:18;;;;;;;1.60;1.20;;;;;;;;;;5092005;28;20211;-72
2021/05/29 05:22:45;;;;;;;1.52;1.20;;;;;;;;;;5091998;28;20236;-72
2021/05/29 05:25:12;;;;;;;1.58;1.20;;;;;;;;;;5091340;28;20208;-72
2021/05/29 05:27:39;;;;;;;1.10;1.02;;;;;;;;;;5091981;28;20218;-72
2021/05/29 05:30:06;;;;;;;1.52;1.40;;;;;;;;;;5091889;28;20338;-72
2021/05/29 05:32:33;;;;;;;1.50;1.13;;;;;;;;;;5091984;28;20280;-72
2021/05/29 05:35:00;;;;;;;1.55;1.33;;;;;;;;;;5091550;28;20201;-72
2021/05/29 05:37:26;;;;;;;1.40;1.30;;;;;;;;;;5091788;28;20283;-72
2021/05/29 05:39:52;;;;;;;2.17;1.45;;;;;;;;;;5091329;28;20303;-72
2021/05/29 05:42:19;;;;;;;4.05;1.10;;;;;;;;;;5091848;28;20204;-72
2021/05/29 05:44:45;;;;;;;2.20;1.38;;;;;;;;;;5091280;28;20595;-72
2021/05/29 05:47:12;;;;;;;26.27;4.10;;;;;;;;;;5091735;28;20206;-72
2021/05/29 05:49:39;;;;;;;1.30;1.10;;;;;;;;;;5091564;28;20212;-72
2021/05/29 05:52:05;;;;;;;1.60;1.35;;;;;;;;;;5091827;28;20247;-72
2021/05/29 05:54:32;;;;;;;3.72;1.20;;;;;;;;;;5091338;28;20283;-72
2021/05/29 05:56:58;;;;;;;1.10;1.00;;;;;;;;;;5091874;28;20660;-72
2021/05/29 05:59:24;;;;;;;2.05;1.25;;;;;;;;;;5090445;28;20259;-71
2021/05/29 06:01:51;;;;;;;1.13;1.05;;;;;;;;;;5091933;28;20550;-72
2021/05/29 06:04:17;;;;;;;1.38;1.27;;;;;;;;;;5090449;28;20281;-72
2021/05/29 06:06:44;;;;;;;2.00;1.30;;;;;;;;;;5091542;28;20210;-71
2021/05/29 06:09:10;;;;;;;1.20;1.00;;;;;;;;;;5091179;28;20303;-72
2021/05/29 06:11:36;;;;;;;1.60;1.27;;;;;;;;;;5091653;28;20544;-72
2021/05/29 06:19:16;;;;;;;1.17;1.02;;;;;;;;;;5092037;28;20315;-72
2021/05/29 06:21:50;;;;;;;2.33;1.20;;;;;;;;;;5095561;28;20209;-71
2021/05/29 06:24:37;;;;;;;5.03;2.10;;;;;;;;;;5095033;28;20320;-70
2021/05/29 06:27:04;;;;;;;0.95;0.85;;;;;;;;;;5095133;28;20653;-72
2021/05/29 06:29:30;;;;;;;4.00;1.67;;;;;;;;;;5095009;28;20307;-71
2021/05/29 06:31:56;;;;;;;1.63;0.77;;;;;;;;;;5094786;28;20196;-71
2021/05/29 06:34:23;;;;;;;1.05;0.60;;;;;;;;;;5094989;28;20287;-71
2021/05/29 06:36:51;;;;;;;1.35;0.80;;;;;;;;;;5093913;28;20295;-72
2021/05/29 06:39:17;;;;;;;0.85;0.80;;;;;;;;;;5093563;28;20225;-71
2021/05/29 06:41:44;;;;;;;0.70;0.70;;;;;;;;;;5094905;28;20291;-71
2021/05/29 06:44:11;;;;;;;0.80;0.80;;;;;;;;;;5094589;28;20307;-71
2021/05/29 06:46:42;;;;;;;0.50;0.50;;;;;;;;;;5093158;28;20274;-71
2021/05/29 06:49:08;;;;;;;0.60;0.60;;;;;;;;;;5094748;28;20228;-71
2021/05/29 06:54:20;;;;;;;0.85;0.55;;;;;;;;;;5094687;28;20236;-71
2021/05/29 06:59:32;;;;;;;0.50;0.50;;;;;;;;;;5094652;28;20231;-70
2021/05/29 07:01:59;;;;;;;0.63;0.63;;;;;;;;;;5093575;28;20291;-71
2021/05/29 07:04:25;;;;;;;1.08;0.80;;;;;;;;;;5094168;28;20224;-72
2021/05/29 07:06:52;;;;;;;1.08;0.73;;;;;;;;;;5094213;28;20207;-71
2021/05/29 07:09:20;;;;;;;0.50;0.50;;;;;;;;;;5094025;28;20635;-71
2021/05/29 07:11:49;;;;;;;0.60;0.60;;;;;;;;;;5093905;28;20292;-71
2021/05/29 07:14:15;;;;;;;0.70;0.70;;;;;;;;;;5092875;28;20227;-71
2021/05/29 07:16:47;;;;;;;0.85;0.80;;;;;;;;;;5092694;28;20265;-71
2021/05/29 07:19:13;;;;;;;0.70;0.70;;;;;;;;;;5093960;28;20618;-71
2021/05/29 07:21:39;;;;;;;0.80;0.70;;;;;;;;;;5094031;28;20205;-71
2021/05/29 07:24:06;;;;;;;0.60;0.60;;;;;;;;;;5093799;28;20596;-71
2021/05/29 07:26:33;;;;;;;0.80;0.80;;;;;;;;;;5093889;28;20211;-70
2021/05/29 07:29:01;;;;;;;1.23;0.68;;;;;;;;;;5093961;28;20311;-70
2021/05/29 07:31:27;;;;;;;0.60;0.60;;;;;;;;;;5093785;28;20325;-71
2021/05/29 07:33:55;;;;;;;2.03;0.93;;;;;;;;;;5093803;28;20212;-71
2021/05/29 07:36:22;;;;;;;2.08;1.00;;;;;;;;;;5092097;28;20741;-71
2021/05/29 07:38:49;;;;;;;0.73;0.55;;;;;;;;;;5093230;28;20711;-71
2021/05/29 07:41:16;;;;;;;0.47;0.47;;;;;;;;;;5092365;28;20240;-71
2021/05/29 07:43:42;;;;;;;0.77;0.65;;;;;;;;;;5093955;28;20295;-71
2021/05/29 07:46:09;;;;;;;0.40;0.40;;;;;;;;;;5092332;28;20201;-71
2021/05/29 07:48:37;;;;;;;1.30;0.80;;;;;;;;;;5093835;28;20221;-71
2021/05/29 07:51:04;;;;;;;0.85;0.80;;;;;;;;;;5092236;28;20246;-71
2021/05/29 07:53:35;;;;;;;0.50;0.40;;;;;;;;;;5092855;28;20315;-71
2021/05/29 07:56:03;;;;;;;0.63;0.60;;;;;;;;;;5093283;28;20492;-71
2021/05/29 07:58:29;;;;;;;0.60;0.52;;;;;;;;;;5091774;28;20715;-71
2021/05/29 08:00:56;;;;;;;0.55;0.50;;;;;;;;;;5092962;28;20287;-71
2021/05/29 08:03:24;;;;;;;1.00;0.90;;;;;;;;;;5091646;28;20545;-71
2021/05/29 08:05:52;;;;;;;0.45;0.45;;;;;;;;;;5092433;28;20307;-72
2021/05/29 08:08:19;;;;;;;0.57;0.57;;;;;;;;;;5091767;28;20261;-71
2021/05/29 08:10:48;;;;;;;0.45;0.45;;;;;;;;;;5091923;28;20236;-71
2021/05/29 08:13:15;;;;;;;1.08;0.70;;;;;;;;;;5092920;28;20640;-70
2021/05/29 08:15:42;;;;;;;0.65;0.60;;;;;;;;;;5092493;28;20287;-71
2021/05/29 08:18:08;;;;;;;0.60;0.60;;;;;;;;;;5092300;28;20712;-70
2021/05/29 08:20:35;;;;;;;2.15;0.80;;;;;;;;;;5092590;28;20683;-70
2021/05/29 08:23:03;;;;;;;0.50;0.50;;;;;;;;;;5092644;28;20588;-71
2021/05/29 08:25:30;;;;;;;0.73;0.50;;;;;;;;;;5092124;28;20657;-71
2021/05/29 08:27:56;;;;;;;0.90;0.60;;;;;;;;;;5092504;28;20204;-71
2021/05/29 08:30:23;;;;;;;0.30;0.30;;;;;;;;;;5092476;28;20206;-72
2021/05/29 08:32:49;;;;;;;0.45;0.45;;;;;;;;;;5092240;28;20302;-71
2021/05/29 08:35:16;;;;;;;0.20;0.20;;;;;;;;;;5092127;28;20204;-72
2021/05/29 08:37:45;;;;;;;1.20;0.50;;;;;;;;;;5092139;28;20235;-71
2021/05/29 08:40:15;;;;;;;0.32;0.30;;;;;;;;;;5091973;28;20206;-71
2021/05/29 08:42:42;;;;;;;0.40;0.40;;;;;;;;;;5091613;28;20298;-71
2021/05/29 08:45:13;;;;;;;0.38;0.38;;;;;;;;;;5091669;28;20215;-71
2021/05/29 08:47:40;;;;;;;0.38;0.38;;;;;;;;;;5092102;28;20239;-72
2021/05/29 08:50:07;;;;;;;0.77;0.40;;;;;;;;;;5092055;28;20279;-71
2021/05/29 08:52:37;;;;;;;0.28;0.28;;;;;;;;;;5091988;28;20211;-71
2021/05/29 08:55:05;;;;;;;0.43;0.40;;;;;;;;;;5090177;28;20262;-71
2021/05/29 08:57:31;;;;;;;0.35;0.35;;;;;;;;;;5091440;28;20282;-72
2021/05/29 08:59:59;;;;;;;0.65;0.65;;;;;;;;;;5091139;28;20266;-72
2021/05/29 09:02:27;;;;;;;0.38;0.38;;;;;;;;;;5091353;28;20216;-71
2021/05/29 09:05:01;;;;;;;0.38;0.35;;;;;;;;;;5091246;28;20359;-71
2021/05/29 09:07:27;;;;;;;0.30;0.30;;;;;;;;;;5091267;28;20242;-71
2021/05/29 09:10:12;;;;;;;0.90;0.73;;;;;;;;;;5073019;28;20307;-71
2021/05/29 09:12:57;;;;;;;1.27;0.52;;;;;;;;;;5089903;28;20212;-71
2021/05/29 09:15:24;;;;;;;1.40;0.70;;;;;;;;;;5089822;28;20235;-71
2021/05/29 09:17:50;;;;;;;0.95;0.85;;;;;;;;;;5090845;28;20235;-71
2021/05/29 09:20:17;;;;;;;1.10;0.77;;;;;;;;;;5089892;28;20226;-70
2021/05/29 09:22:52;;;;;;;8.85;2.17;;;;;;;;;;5090952;28;20200;-70
2021/05/29 09:25:23;;;;;;;0.50;0.50;;;;;;;;;;5090997;28;20271;-71
2021/05/29 09:27:50;;;;;;;0.30;0.30;;;;;;;;;;5089737;28;20205;-71
2021/05/29 09:30:33;;;;;;;1.38;0.93;;;;;;;;;;5090495;28;20547;-71
2021/05/29 09:33:15;;;;;;;0.55;0.35;;;;;;;;;;5090610;28;20291;-71
2021/05/29 09:35:45;;;;;;;0.30;0.30;;;;;;;;;;5090024;28;20619;-71
2021/05/29 09:38:11;;;;;;;2.10;0.50;;;;;;;;;;5090425;28;20286;-71
2021/05/29 09:40:38;;;;;;;1.77;0.95;;;;;;;;;;5090241;28;20243;-71
2021/05/29 09:43:07;;;;;;;0.40;0.40;;;;;;;;;;5090476;28;20353;-70
2021/05/29 09:45:34;;;;;;;0.52;0.52;;;;;;;;;;5089997;28;20230;-71
2021/05/29 09:48:11;;;;;;;0.82;0.40;;;;;;;;;;5089850;28;20717;-70
2021/05/29 09:50:56;;;;;;;0.60;0.47;;;;;;;;;;5089721;28;20684;-71
2021/05/29 09:53:26;;;;;;;0.50;0.40;;;;;;;;;;5090055;28;20200;-70
2021/05/29 09:55:53;;;;;;;0.30;0.30;;;;;;;;;;5093146;28;20303;-70
2021/05/29 09:58:20;;;;;;;0.17;0.17;;;;;;;;;;5093681;28;20716;-70
2021/05/29 10:00:47;;;;;;;1.75;0.40;;;;;;;;;;5094446;28;20228;-71
2021/05/29 10:03:14;;;;;;;1.48;0.80;;;;;;;;;;5094314;28;20287;-71
2021/05/29 10:05:51;;;;;;;0.73;0.52;;;;;;;;;;5093719;28;20315;-71
2021/05/29 10:08:18;;;;;;;0.43;0.43;;;;;;;;;;5092705;28;20220;-71
2021/05/29 10:10:44;;;;;;;0.40;0.32;;;;;;;;;;5093681;28;20295;-71
2021/05/29 10:13:10;;;;;;;0.43;0.40;;;;;;;;;;5092485;28;20317;-71
2021/05/29 10:15:37;;;;;;;0.50;0.50;;;;;;;;;;5094317;28;20551;-70
2021/05/29 10:18:06;;;;;;;0.47;0.47;;;;;;;;;;5093588;28;20601;-70
2021/05/29 10:20:34;;;;;;;2.65;0.40;;;;;;;;;;5076020;28;20303;-70
2021/05/29 10:23:01;;;;;;;0.55;0.50;;;;;;;;;;5093260;28;20633;-72
2021/05/29 10:25:35;;;;;;;0.20;0.20;;;;;;;;;;5091270;28;20271;-70
2021/05/29 10:28:04;;;;;;;0.30;0.30;;;;;;;;;;5092920;28;20228;-70
2021/05/29 10:30:32;;;;;;;0.63;0.35;;;;;;;;;;5094544;28;20279;-72
2021/05/29 10:33:11;;;;;;;3.30;2.35;;;;;;;;;;5091916;28;20326;-71
2021/05/29 10:35:39;;;;;;;1.67;1.13;;;;;;;;;;5091194;28;20240;-72
2021/05/29 10:38:07;;;;;;;1.08;0.82;;;;;;;;;;5092432;28;20228;-70
2021/05/29 10:40:36;;;;;;;1.38;1.10;;;;;;;;;;5091276;28;20624;-70
2021/05/29 10:43:09;;;;;;;0.40;0.40;;;;;;;;;;5091661;28;20313;-70
2021/05/29 10:45:37;;;;;;;0.52;0.50;;;;;;;;;;5092157;28;20225;-70
2021/05/29 10:48:05;;;;;;;5.25;4.15;;;;;;;;;;5092092;28;20234;-70
2021/05/29 10:50:44;;;;;;;4.82;3.45;;;;;;;;;;5091898;28;20307;-71
2021/05/29 10:53:30;;;;;;;8.77;5.70;;;;;;;;;;5092558;28;20200;-71
2021/05/29 10:56:18;;;;;;;2.30;0.95;;;;;;;;;;5090216;28;20228;-71
2021/05/29 10:58:54;;;;;;;3.13;2.38;;;;;;;;;;5091991;28;20230;-71
2021/05/29 11:01:21;;;;;;;2.92;2.63;;;;;;;;;;5091768;28;20204;-71
2021/05/29 11:04:07;;;;;;;22.02;14.02;;;;;;;;;;5091936;28;20209;-72
2021/05/29 11:06:33;;;;;;;9.15;6.05;;;;;;;;;;5091245;28;20240;-72
2021/05/29 11:09:02;;;;;;;9.85;6.90;;;;;;;;;;5091799;28;20221;-71
2021/05/29 11:11:38;;;;;;;2.17;1.98;;;;;;;;;;5090025;28;20247;-71
2021/05/29 11:14:08;;;;;;;8.82;4.30;;;;;;;;;;5091838;28;20235;-71
2021/05/29 11:19:17;;;;;;;6.53;3.33;;;;;;;;;;5091637;28;20232;-72
2021/05/29 11:22:06;;;;;;;6.68;3.47;;;;;;;;;;5091147;28;20246;-71
2021/05/29 11:24:35;;;;;;;1.80;1.45;;;;;;;;;;5090971;28;20386;-72
2021/05/29 11:27:04;;;;;;;3.30;2.30;;;;;;;;;;5091643;28;20295;-71
2021/05/29 11:29:46;;;;;;;8.63;4.15;;;;;;;;;;5091505;28;20758;-71
2021/05/29 11:32:12;;;;;;;5.20;3.60;;;;;;;;;;5091020;28;20207;-71
2021/05/29 11:34:40;;;;;;;3.88;2.78;;;;;;;;;;5089375;28;20287;-72
2021/05/29 11:37:13;;;;;;;2.30;1.75;;;;;;;;;;5089352;28;20603;-72
2021/05/29 11:39:49;;;;;;;1.77;1.38;;;;;;;;;;5092753;28;20290;-71
2021/05/29 11:42:15;;;;;;;1.00;0.90;;;;;;;;;;5090240;28;20303;-71
2021/05/29 11:44:42;;;;;;;8.30;5.00;;;;;;;;;;5089832;28;20709;-71
2021/05/29 11:47:12;;;;;;;4.72;2.50;;;;;;;;;;5090652;28;20211;-70
2021/05/29 11:49:39;;;;;;;10.10;6.50;;;;;;;;;;5091143;28;20228;-71
2021/05/29 11:52:05;;;;;;;11.43;8.60;;;;;;;;;;5091480;28;20200;-70
2021/05/29 11:54:33;;;;;;;13.85;9.75;;;;;;;;;;5089783;28;20716;-70
2021/05/29 11:56:59;;;;;;;6.50;4.97;;;;;;;;;;5090514;28;20277;-70
2021/05/29 11:59:25;;;;;;;3.70;2.67;;;;;;;;;;5090673;28;20230;-71
2021/05/29 12:01:54;;;;;;;1.40;1.30;;;;;;;;;;5090221;28;20224;-70
2021/05/29 12:04:22;;;;;;;5.68;3.78;;;;;;;;;;5090289;28;20342;-73
2021/05/29 12:06:50;;;;;;;2.92;1.38;;;;;;;;;;5088485;28;20582;-72
2021/05/29 12:09:27;;;;;;;2.20;1.70;;;;;;;;;;5088558;28;20603;-72
2021/05/29 12:11:57;;;;;;;1.95;1.30;;;;;;;;;;5090063;28;20291;-72
2021/05/29 12:14:45;;;;;;;7.90;4.97;;;;;;;;;;5089619;28;20212;-72
2021/05/29 12:17:14;;;;;;;29.80;14.73;;;;;;;;;;5087680;28;20255;-71
2021/05/29 12:19:56;;;;;;;2.78;2.28;;;;;;;;;;5087895;28;20307;-72
2021/05/29 12:22:22;;;;;;;2.28;1.45;;;;;;;;;;5088031;28;20283;-70
2021/05/29 12:24:51;;;;;;;0.50;0.50;;;;;;;;;;5089112;28;20251;-71
2021/05/29 12:27:21;;;;;;;0.65;0.45;;;;;;;;;;5087997;28;20207;-72
2021/05/29 12:29:48;;;;;;;5.45;3.05;;;;;;;;;;5087755;28;20216;-71
2021/05/29 12:32:31;;;;;;;4.95;2.28;;;;;;;;;;5088215;28;20212;-72
2021/05/29 12:35:30;;;;;;;3.88;2.45;;;;;;;;;;5088972;28;20205;-71
2021/05/29 12:38:16;;;;;;;0.85;0.80;;;;;;;;;;5070693;28;20201;-71
2021/05/29 12:40:59;;;;;;;1.75;0.68;;;;;;;;;;5088154;28;20645;-71
2021/05/29 12:43:26;;;;;;;2.05;0.77;;;;;;;;;;5087022;28;20603;-73
2021/05/29 12:45:53;;;;;;;1.20;0.90;;;;;;;;;;5088565;28;20315;-72
2021/05/29 12:48:19;;;;;;;0.40;0.40;;;;;;;;;;5088673;28;20304;-72
2021/05/29 12:51:00;;;;;;;0.90;0.80;;;;;;;;;;5088528;28;20206;-72
2021/05/29 12:53:27;;;;;;;3.30;1.85;;;;;;;;;;5086834;28;20283;-71
2021/05/29 12:56:14;;;;;;;0.93;0.85;;;;;;;;;;5089276;28;20283;-71
2021/05/29 12:58:55;;;;;;;2.08;1.63;;;;;;;;;;5068174;28;20335;-73
2021/05/29 13:01:31;;;;;;;5.25;3.20;;;;;;;;;;5069065;28;20237;-72
2021/05/29 13:07:30;;;;;;;3.58;1.80;;;;;;;;;;5069076;28;20341;-73
2021/05/29 13:09:49;;;;;;;5.00;2.92;;;;;;;;;;5061085;28;20426;-72
2021/05/29 13:12:17;;;;;;;1.92;1.17;;;;;;;;;;5069367;28;20332;-73
2021/05/29 13:14:44;;;;;;;3.47;2.10;;;;;;;;;;5068851;28;20197;-71
2021/05/29 13:17:40;;;;;;;4.43;2.58;;;;;;;;;;5068910;28;20689;-71
2021/05/29 13:20:13;;;;;;;3.72;1.88;;;;;;;;;;5059130;28;20247;-73
2021/05/29 13:22:40;;;;;;;1.50;0.98;;;;;;;;;;5068302;28;20572;-72
2021/05/29 13:25:08;;;;;;;6.63;4.70;;;;;;;;;;5068151;28;20299;-73
2021/05/29 13:27:45;;;;;;;2.88;2.00;;;;;;;;;;5066625;28;20303;-72
2021/05/29 13:30:19;;;;;;;1.83;1.08;;;;;;;;;;5066905;28;20232;-73
2021/05/29 13:32:49;;;;;;;1.50;1.10;;;;;;;;;;5067877;28;20286;-72
2021/05/29 13:35:18;;;;;;;1.83;1.23;;;;;;;;;;5067860;28;20208;-72
2021/05/29 13:37:45;;;;;;;0.57;0.30;;;;;;;;;;5066709;28;20205;-71
2021/05/29 13:40:11;;;;;;;0.82;0.52;;;;;;;;;;5050160;28;20243;-71
2021/05/29 13:42:38;;;;;;;2.42;1.63;;;;;;;;;;5066909;28;20258;-72
2021/05/29 13:45:10;;;;;;;0.93;0.65;;;;;;;;;;5067516;28;20220;-71
2021/05/29 13:47:37;;;;;;;1.10;0.70;;;;;;;;;;5065921;28;20282;-71
2021/05/29 13:50:04;;;;;;;3.50;2.30;;;;;;;;;;5074653;28;20220;-72
2021/05/29 13:52:31;;;;;;;14.90;9.98;;;;;;;;;;5087999;28;20627;-70
2021/05/29 13:54:57;;;;;;;1.95;1.52;;;;;;;;;;5085845;28;20212;-73
2021/05/29 13:57:24;;;;;;;8.10;5.72;;;;;;;;;;5087494;28;20327;-72
2021/05/29 13:59:50;;;;;;;2.65;1.70;;;;;;;;;;5087222;28;20590;-72
2021/05/29 14:02:16;;;;;;;1.83;1.20;;;;;;;;;;5087601;28;20664;-73
2021/05/29 14:04:43;;;;;;;0.80;0.60;;;;;;;;;;5085460;28;20627;-72
2021/05/29 14:07:09;;;;;;;1.30;0.80;;;;;;;;;;5086317;28;20662;-73
2021/05/29 14:09:36;;;;;;;4.07;2.50;;;;;;;;;;5087663;28;20351;-71
2021/05/29 14:12:02;;;;;;;0.75;0.70;;;;;;;;;;5087783;28;20291;-73
2021/05/29 14:14:43;;;;;;;0.82;0.60;;;;;;;;;;5087901;28;20200;-72
2021/05/29 14:17:10;;;;;;;0.63;0.60;;;;;;;;;;5086666;28;20241;-72
2021/05/29 14:19:37;;;;;;;0.82;0.40;;;;;;;;;;5088105;28;20697;-72
2021/05/29 14:22:04;;;;;;;1.15;0.90;;;;;;;;;;5086137;28;20296;-72
2021/05/29 14:24:30;;;;;;;0.47;0.47;;;;;;;;;;5085993;28;20607;-73
2021/05/29 14:26:58;;;;;;;0.30;0.28;;;;;;;;;;5087925;28;20300;-73
2021/05/29 14:29:24;;;;;;;0.95;0.50;;;;;;;;;;5086461;28;20221;-72
2021/05/29 14:31:51;;;;;;;0.30;0.30;;;;;;;;;;5088584;28;20264;-71
2021/05/29 14:34:18;;;;;;;0.32;0.30;;;;;;;;;;5085625;28;20220;-72
2021/05/29 14:36:45;;;;;;;0.30;0.30;;;;;;;;;;5087398;28;20295;-72
2021/05/29 14:39:11;;;;;;;1.05;0.60;;;;;;;;;;5085835;28;20738;-71
2021/05/29 14:41:38;;;;;;;3.22;0.80;;;;;;;;;;5088403;28;20311;-72
2021/05/29 14:44:07;;;;;;;2.20;0.95;;;;;;;;;;5089059;28;20265;-72
2021/05/29 14:46:34;;;;;;;20.48;11.30;;;;;;;;;;5089129;28;20232;-72
2021/05/29 14:49:00;;;;;;;13.45;8.23;;;;;;;;;;5089378;28;20277;-73
2021/05/29 14:51:30;;;;;;;2.25;1.75;;;;;;;;;;5090281;28;20227;-73
2021/05/29 14:54:00;;;;;;;1.23;1.05;;;;;;;;;;5090678;28;20216;-73
2021/05/29 14:56:28;;;;;;;0.70;0.50;;;;;;;;;;5088612;28;20286;-72
2021/05/29 14:58:54;;;;;;;1.77;0.50;;;;;;;;;;5088631;28;20308;-72
2021/05/29 15:01:21;;;;;;;2.75;1.83;;;;;;;;;;5088646;28;20204;-72
2021/05/29 15:03:53;;;;;;;5.60;3.72;;;;;;;;;;5088535;28;20311;-73
2021/05/29 15:06:22;;;;;;;19.05;10.70;;;;;;;;;;5088470;28;20224;-72
2021/05/29 15:08:50;;;;;;;3.97;2.30;;;;;;;;;;5087704;28;20267;-72
2021/05/29 15:11:16;;;;;;;3.35;1.70;;;;;;;;;;5088487;28;20279;-72
2021/05/29 15:13:43;;;;;;;2.30;1.60;;;;;;;;;;5088237;28;20303;-72
2021/05/29 15:16:10;;;;;;;1.33;0.93;;;;;;;;;;5088201;28;20204;-71
2021/05/29 15:18:37;;;;;;;3.65;0.80;;;;;;;;;;5089696;28;20303;-74
2021/05/29 15:21:11;;;;;;;0.80;0.55;;;;;;;;;;5089671;28;20228;-72
2021/05/29 15:23:46;;;;;;;0.57;0.57;;;;;;;;;;5090265;28;20273;-71
2021/05/29 15:26:12;;;;;;;1.17;0.80;;;;;;;;;;5090622;28;20223;-72
2021/05/29 15:28:39;;;;;;;1.20;1.10;;;;;;;;;;5090210;28;20322;-73
2021/05/29 15:31:07;;;;;;;0.38;0.38;;;;;;;;;;5091221;28;20287;-73
2021/05/29 15:33:33;;;;;;;0.57;0.57;;;;;;;;;;5090354;28;20216;-72
2021/05/29 15:36:00;;;;;;;1.30;0.98;;;;;;;;;;5090305;28;20295;-72
2021/05/29 15:38:26;;;;;;;1.25;0.98;;;;;;;;;;5090786;28;20316;-74
2021/05/29 15:40:53;;;;;;;0.82;0.80;;;;;;;;;;5089476;28;20240;-72
2021/05/29 15:43:19;;;;;;;0.75;0.68;;;;;;;;;;5089284;28;20634;-72